WBSB/BWN METAR and TAF weather

Enter ICAO airport designator
Station Type Date Time Source
WBSB METAR 2020/07/09 08:00 UTC NOAA

WBSB 090800Z 28006KT 9999 FEW015 FEW016CB BKN280 32/25 Q1005 NOSIG


Station Type Date Time Source
WBSB Decoded METAR 2020/07/09 08:00 UTC NOAA

Brunei Airport, Brunei (WBSB) 04-56N 114-56E 15M
Jul 09, 2020 - 04:00 AM EDT / 2020.07.09 0800 UTC
Wind: from the W (280 degrees) at 7 MPH (6 KT):0
Visibility: greater than 7 mile(s):0
Sky conditions: mostly cloudy
Weather: Cumulonimbus clouds observed
Temperature: 89 F (32 C)
Heat index: 100.6 F (38.1 C):1
Dew Point: 77 F (25 C)
Relative Humidity: 66%
Pressure (altimeter): 29.68 in. Hg (1005 hPa)
ob: WBSB 090800Z 28006KT 9999 FEW015 FEW016CB BKN280 32/25 Q1005 NOSIG
cycle: 8

Station Type Date Time Source
WBSB TAF 2020/07/09 06:12 UTC NOAA

TAF WBSB 090450Z 0906/1012 33009KT 9999 SCT015 FEW016CB
TEMPO 0910/0914 4000 TSRA
BECMG 0914/0916 17003KT FEW003 FEW015CB BKN140

Example: see airport list